sensor_id;sensor_type;location;lat;lon;timestamp;P1;durP1;ratioP1;P2;durP2;ratioP2
76636;SDS011;65532;52.124;5.480;2023-06-24T00:02:22;12.63;;;3.67;;
76636;SDS011;65532;52.124;5.480;2023-06-24T00:04:50;9.05;;;4.22;;
76636;SDS011;65532;52.124;5.480;2023-06-24T00:07:18;9.18;;;4.00;;
76636;SDS011;65532;52.124;5.480;2023-06-24T00:09:48;8.13;;;4.72;;
76636;SDS011;65532;52.124;5.480;2023-06-24T00:12:15;11.25;;;4.38;;
76636;SDS011;65532;52.124;5.480;2023-06-24T00:14:46;10.30;;;5.07;;
76636;SDS011;65532;52.124;5.480;2023-06-24T00:17:13;10.63;;;5.05;;
76636;SDS011;65532;52.124;5.480;2023-06-24T00:19:39;10.60;;;5.15;;
76636;SDS011;65532;52.124;5.480;2023-06-24T00:22:06;14.77;;;5.35;;
76636;SDS011;65532;52.124;5.480;2023-06-24T00:24:32;13.23;;;5.13;;
76636;SDS011;65532;52.124;5.480;2023-06-24T00:26:59;10.70;;;5.32;;
76636;SDS011;65532;52.124;5.480;2023-06-24T00:29:25;11.63;;;4.32;;
76636;SDS011;65532;52.124;5.480;2023-06-24T00:31:53;8.80;;;4.65;;
76636;SDS011;65532;52.124;5.480;2023-06-24T00:34:19;10.45;;;5.18;;
76636;SDS011;65532;52.124;5.480;2023-06-24T00:36:46;9.20;;;4.80;;
76636;SDS011;65532;52.124;5.480;2023-06-24T00:39:13;10.23;;;5.45;;
76636;SDS011;65532;52.124;5.480;2023-06-24T00:41:39;11.13;;;6.25;;
76636;SDS011;65532;52.124;5.480;2023-06-24T00:44:06;10.02;;;5.50;;
76636;SDS011;65532;52.124;5.480;2023-06-24T00:46:33;10.32;;;6.05;;
76636;SDS011;65532;52.124;5.480;2023-06-24T00:49:00;10.02;;;5.43;;
76636;SDS011;65532;52.124;5.480;2023-06-24T00:51:29;10.68;;;6.82;;
76636;SDS011;65532;52.124;5.480;2023-06-24T00:54:00;13.02;;;6.20;;
76636;SDS011;65532;52.124;5.480;2023-06-24T00:56:30;11.50;;;5.50;;
76636;SDS011;65532;52.124;5.480;2023-06-24T00:59:00;12.27;;;5.55;;
76636;SDS011;65532;52.124;5.480;2023-06-24T01:01:29;10.63;;;5.63;;
76636;SDS011;65532;52.124;5.480;2023-06-24T01:04:00;10.75;;;5.65;;
76636;SDS011;65532;52.124;5.480;2023-06-24T01:06:28;13.10;;;6.70;;
76636;SDS011;65532;52.124;5.480;2023-06-24T01:08:56;12.82;;;6.82;;
76636;SDS011;65532;52.124;5.480;2023-06-24T01:11:23;11.90;;;6.40;;
76636;SDS011;65532;52.124;5.480;2023-06-24T01:13:50;12.00;;;6.45;;
76636;SDS011;65532;52.124;5.480;2023-06-24T01:16:21;10.25;;;6.95;;
76636;SDS011;65532;52.124;5.480;2023-06-24T01:19:22;11.65;;;6.20;;
76636;SDS011;65532;52.124;5.480;2023-06-24T01:22:03;13.55;;;6.47;;
76636;SDS011;65532;52.124;5.480;2023-06-24T01:24:49;12.50;;;6.53;;
76636;SDS011;65532;52.124;5.480;2023-06-24T01:27:32;10.07;;;6.32;;
76636;SDS011;65532;52.124;5.480;2023-06-24T01:32:57;12.52;;;6.10;;
76636;SDS011;65532;52.124;5.480;2023-06-24T01:38:07;11.18;;;6.10;;
76636;SDS011;65532;52.124;5.480;2023-06-24T01:40:40;12.57;;;6.13;;
76636;SDS011;65532;52.124;5.480;2023-06-24T01:43:12;11.32;;;5.35;;
76636;SDS011;65532;52.124;5.480;2023-06-24T01:45:44;11.40;;;5.20;;
76636;SDS011;65532;52.124;5.480;2023-06-24T01:48:15;13.68;;;5.75;;
76636;SDS011;65532;52.124;5.480;2023-06-24T01:50:55;12.52;;;6.20;;
76636;SDS011;65532;52.124;5.480;2023-06-24T01:53:24;12.95;;;6.20;;
76636;SDS011;65532;52.124;5.480;2023-06-24T01:55:55;11.70;;;6.18;;
76636;SDS011;65532;52.124;5.480;2023-06-24T01:58:25;10.05;;;5.45;;
76636;SDS011;65532;52.124;5.480;2023-06-24T02:00:52;11.98;;;5.25;;
76636;SDS011;65532;52.124;5.480;2023-06-24T02:03:20;12.77;;;6.53;;
76636;SDS011;65532;52.124;5.480;2023-06-24T02:05:49;12.02;;;6.20;;
76636;SDS011;65532;52.124;5.480;2023-06-24T02:08:18;10.40;;;6.05;;
76636;SDS011;65532;52.124;5.480;2023-06-24T02:10:47;13.23;;;6.55;;
76636;SDS011;65532;52.124;5.480;2023-06-24T02:13:16;13.30;;;6.13;;
76636;SDS011;65532;52.124;5.480;2023-06-24T02:15:43;12.15;;;6.60;;
76636;SDS011;65532;52.124;5.480;2023-06-24T02:18:13;16.23;;;6.97;;
76636;SDS011;65532;52.124;5.480;2023-06-24T02:20:42;11.52;;;6.53;;
76636;SDS011;65532;52.124;5.480;2023-06-24T02:23:10;11.80;;;6.10;;
76636;SDS011;65532;52.124;5.480;2023-06-24T02:25:38;10.38;;;5.22;;
76636;SDS011;65532;52.124;5.480;2023-06-24T02:28:06;10.43;;;5.68;;
76636;SDS011;65532;52.124;5.480;2023-06-24T02:30:35;10.90;;;6.20;;
76636;SDS011;65532;52.124;5.480;2023-06-24T02:33:02;13.00;;;6.40;;
76636;SDS011;65532;52.124;5.480;2023-06-24T02:35:29;11.35;;;5.63;;
76636;SDS011;65532;52.124;5.480;2023-06-24T02:37:56;12.02;;;5.53;;
76636;SDS011;65532;52.124;5.480;2023-06-24T02:40:22;13.18;;;6.35;;
76636;SDS011;65532;52.124;5.480;2023-06-24T02:42:49;12.48;;;6.55;;
76636;SDS011;65532;52.124;5.480;2023-06-24T02:45:16;11.05;;;6.65;;
76636;SDS011;65532;52.124;5.480;2023-06-24T02:47:43;11.90;;;6.40;;
76636;SDS011;65532;52.124;5.480;2023-06-24T02:50:12;13.00;;;5.60;;
76636;SDS011;65532;52.124;5.480;2023-06-24T02:52:41;13.23;;;5.57;;
76636;SDS011;65532;52.124;5.480;2023-06-24T02:55:11;15.35;;;7.18;;
76636;SDS011;65532;52.124;5.480;2023-06-24T02:57:51;11.70;;;5.80;;
76636;SDS011;65532;52.124;5.480;2023-06-24T03:00:37;10.93;;;5.88;;
76636;SDS011;65532;52.124;5.480;2023-06-24T03:03:07;10.88;;;6.53;;
76636;SDS011;65532;52.124;5.480;2023-06-24T03:05:39;17.13;;;7.15;;
76636;SDS011;65532;52.124;5.480;2023-06-24T03:08:06;11.48;;;5.70;;
76636;SDS011;65532;52.124;5.480;2023-06-24T03:10:35;15.23;;;5.65;;
76636;SDS011;65532;52.124;5.480;2023-06-24T03:13:06;12.73;;;5.82;;
76636;SDS011;65532;52.124;5.480;2023-06-24T03:15:42;14.27;;;6.28;;
76636;SDS011;65532;52.124;5.480;2023-06-24T03:18:08;14.00;;;6.38;;
76636;SDS011;65532;52.124;5.480;2023-06-24T03:20:35;14.27;;;6.35;;
76636;SDS011;65532;52.124;5.480;2023-06-24T03:23:09;13.50;;;5.75;;
76636;SDS011;65532;52.124;5.480;2023-06-24T03:25:37;9.32;;;5.05;;
76636;SDS011;65532;52.124;5.480;2023-06-24T03:28:04;11.02;;;6.13;;
76636;SDS011;65532;52.124;5.480;2023-06-24T03:30:37;11.93;;;6.10;;
76636;SDS011;65532;52.124;5.480;2023-06-24T03:33:04;13.20;;;6.07;;
76636;SDS011;65532;52.124;5.480;2023-06-24T03:35:32;12.40;;;6.10;;
76636;SDS011;65532;52.124;5.480;2023-06-24T03:38:02;13.15;;;6.25;;
76636;SDS011;65532;52.124;5.480;2023-06-24T03:40:30;10.93;;;5.57;;
76636;SDS011;65532;52.124;5.480;2023-06-24T03:42:58;12.95;;;6.00;;
76636;SDS011;65532;52.124;5.480;2023-06-24T03:45:24;12.13;;;6.20;;
76636;SDS011;65532;52.124;5.480;2023-06-24T03:47:51;12.90;;;6.05;;
76636;SDS011;65532;52.124;5.480;2023-06-24T03:50:17;10.38;;;5.72;;
76636;SDS011;65532;52.124;5.480;2023-06-24T03:52:44;12.30;;;6.25;;
76636;SDS011;65532;52.124;5.480;2023-06-24T03:55:11;12.93;;;6.22;;
76636;SDS011;65532;52.124;5.480;2023-06-24T03:57:38;10.48;;;5.97;;
76636;SDS011;65532;52.124;5.480;2023-06-24T04:00:05;14.00;;;6.82;;
76636;SDS011;65532;52.124;5.480;2023-06-24T04:02:47;11.10;;;5.70;;
76636;SDS011;65532;52.124;5.480;2023-06-24T04:05:13;13.50;;;6.20;;
76636;SDS011;65532;52.124;5.480;2023-06-24T04:07:41;11.30;;;6.35;;
76636;SDS011;65532;52.124;5.480;2023-06-24T04:10:13;10.07;;;5.13;;
76636;SDS011;65532;52.124;5.480;2023-06-24T04:12:41;10.43;;;6.05;;
76636;SDS011;65532;52.124;5.480;2023-06-24T04:15:08;10.23;;;5.35;;
76636;SDS011;65532;52.124;5.480;2023-06-24T04:17:34;12.65;;;6.28;;
76636;SDS011;65532;52.124;5.480;2023-06-24T04:20:01;12.82;;;5.50;;
76636;SDS011;65532;52.124;5.480;2023-06-24T04:22:38;13.02;;;6.45;;
76636;SDS011;65532;52.124;5.480;2023-06-24T04:25:06;14.18;;;6.30;;
76636;SDS011;65532;52.124;5.480;2023-06-24T04:27:34;11.48;;;6.15;;
76636;SDS011;65532;52.124;5.480;2023-06-24T04:30:04;10.85;;;6.05;;
76636;SDS011;65532;52.124;5.480;2023-06-24T04:32:31;15.77;;;6.35;;
76636;SDS011;65532;52.124;5.480;2023-06-24T04:34:58;10.50;;;6.10;;
76636;SDS011;65532;52.124;5.480;2023-06-24T04:37:27;12.55;;;6.55;;
76636;SDS011;65532;52.124;5.480;2023-06-24T04:39:54;16.83;;;8.10;;
76636;SDS011;65532;52.124;5.480;2023-06-24T04:42:20;17.75;;;6.90;;
76636;SDS011;65532;52.124;5.480;2023-06-24T04:44:48;16.35;;;8.32;;
76636;SDS011;65532;52.124;5.480;2023-06-24T04:47:17;18.52;;;7.95;;
76636;SDS011;65532;52.124;5.480;2023-06-24T04:49:44;15.73;;;6.78;;
76636;SDS011;65532;52.124;5.480;2023-06-24T04:52:11;11.63;;;6.13;;
76636;SDS011;65532;52.124;5.480;2023-06-24T04:54:38;10.90;;;5.82;;
76636;SDS011;65532;52.124;5.480;2023-06-24T04:57:06;13.60;;;6.68;;
76636;SDS011;65532;52.124;5.480;2023-06-24T04:59:34;13.70;;;6.68;;
76636;SDS011;65532;52.124;5.480;2023-06-24T05:02:00;15.30;;;7.18;;
76636;SDS011;65532;52.124;5.480;2023-06-24T05:04:27;18.10;;;6.95;;
76636;SDS011;65532;52.124;5.480;2023-06-24T05:06:53;13.43;;;5.72;;
76636;SDS011;65532;52.124;5.480;2023-06-24T05:09:20;10.18;;;4.93;;
76636;SDS011;65532;52.124;5.480;2023-06-24T05:11:47;11.77;;;5.40;;
76636;SDS011;65532;52.124;5.480;2023-06-24T05:14:13;11.50;;;4.95;;
76636;SDS011;65532;52.124;5.480;2023-06-24T05:16:40;13.75;;;6.72;;
76636;SDS011;65532;52.124;5.480;2023-06-24T05:19:06;11.73;;;4.93;;
76636;SDS011;65532;52.124;5.480;2023-06-24T05:21:33;12.98;;;4.40;;
76636;SDS011;65532;52.124;5.480;2023-06-24T05:23:59;9.18;;;4.35;;
76636;SDS011;65532;52.124;5.480;2023-06-24T05:26:26;10.60;;;4.18;;
76636;SDS011;65532;52.124;5.480;2023-06-24T05:28:52;7.22;;;3.72;;
76636;SDS011;65532;52.124;5.480;2023-06-24T05:31:19;7.45;;;3.55;;
76636;SDS011;65532;52.124;5.480;2023-06-24T05:33:46;8.13;;;3.47;;
76636;SDS011;65532;52.124;5.480;2023-06-24T05:36:12;7.95;;;3.80;;
76636;SDS011;65532;52.124;5.480;2023-06-24T05:38:39;8.10;;;3.47;;
76636;SDS011;65532;52.124;5.480;2023-06-24T05:41:05;7.70;;;3.53;;
76636;SDS011;65532;52.124;5.480;2023-06-24T05:43:32;7.30;;;3.58;;
76636;SDS011;65532;52.124;5.480;2023-06-24T05:45:58;9.02;;;3.95;;
76636;SDS011;65532;52.124;5.480;2023-06-24T05:48:25;7.85;;;3.17;;
76636;SDS011;65532;52.124;5.480;2023-06-24T05:50:52;7.55;;;3.17;;
76636;SDS011;65532;52.124;5.480;2023-06-24T05:53:18;8.27;;;3.95;;
76636;SDS011;65532;52.124;5.480;2023-06-24T05:55:45;6.68;;;4.13;;
76636;SDS011;65532;52.124;5.480;2023-06-24T05:58:11;5.78;;;2.83;;
76636;SDS011;65532;52.124;5.480;2023-06-24T06:00:38;6.47;;;3.45;;
76636;SDS011;65532;52.124;5.480;2023-06-24T06:03:04;6.28;;;3.20;;
76636;SDS011;65532;52.124;5.480;2023-06-24T06:05:31;7.32;;;3.03;;
76636;SDS011;65532;52.124;5.480;2023-06-24T06:07:58;5.88;;;2.90;;
76636;SDS011;65532;52.124;5.480;2023-06-24T06:10:24;7.05;;;3.28;;
76636;SDS011;65532;52.124;5.480;2023-06-24T06:12:51;5.43;;;3.05;;
76636;SDS011;65532;52.124;5.480;2023-06-24T06:15:19;9.23;;;2.92;;
76636;SDS011;65532;52.124;5.480;2023-06-24T06:17:46;6.70;;;3.35;;
76636;SDS011;65532;52.124;5.480;2023-06-24T06:20:13;5.38;;;2.97;;
76636;SDS011;65532;52.124;5.480;2023-06-24T06:22:39;6.57;;;2.40;;
76636;SDS011;65532;52.124;5.480;2023-06-24T06:25:06;6.13;;;2.25;;
76636;SDS011;65532;52.124;5.480;2023-06-24T06:27:33;4.72;;;2.40;;
76636;SDS011;65532;52.124;5.480;2023-06-24T06:30:00;5.70;;;2.20;;
76636;SDS011;65532;52.124;5.480;2023-06-24T06:32:26;6.82;;;2.05;;
76636;SDS011;65532;52.124;5.480;2023-06-24T06:34:56;4.85;;;2.20;;
76636;SDS011;65532;52.124;5.480;2023-06-24T06:37:22;7.07;;;2.22;;
76636;SDS011;65532;52.124;5.480;2023-06-24T06:39:49;4.18;;;2.03;;
76636;SDS011;65532;52.124;5.480;2023-06-24T06:42:15;6.18;;;2.00;;
76636;SDS011;65532;52.124;5.480;2023-06-24T06:44:42;5.05;;;2.25;;
76636;SDS011;65532;52.124;5.480;2023-06-24T06:47:09;4.63;;;2.03;;
76636;SDS011;65532;52.124;5.480;2023-06-24T06:49:36;5.28;;;1.98;;
76636;SDS011;65532;52.124;5.480;2023-06-24T06:52:03;4.53;;;2.35;;
76636;SDS011;65532;52.124;5.480;2023-06-24T06:54:30;4.38;;;1.95;;
76636;SDS011;65532;52.124;5.480;2023-06-24T06:57:00;4.45;;;1.83;;
76636;SDS011;65532;52.124;5.480;2023-06-24T06:59:27;4.85;;;1.85;;
76636;SDS011;65532;52.124;5.480;2023-06-24T07:01:54;4.13;;;1.50;;
76636;SDS011;65532;52.124;5.480;2023-06-24T07:04:20;4.82;;;1.60;;
76636;SDS011;65532;52.124;5.480;2023-06-24T07:06:47;5.25;;;1.58;;
76636;SDS011;65532;52.124;5.480;2023-06-24T07:09:14;5.18;;;1.55;;
76636;SDS011;65532;52.124;5.480;2023-06-24T07:11:41;5.40;;;2.45;;
76636;SDS011;65532;52.124;5.480;2023-06-24T07:14:08;4.03;;;1.60;;
76636;SDS011;65532;52.124;5.480;2023-06-24T07:16:35;4.35;;;1.63;;
76636;SDS011;65532;52.124;5.480;2023-06-24T07:19:02;3.95;;;1.90;;
76636;SDS011;65532;52.124;5.480;2023-06-24T07:21:28;6.93;;;2.33;;
76636;SDS011;65532;52.124;5.480;2023-06-24T07:23:55;5.05;;;1.70;;
76636;SDS011;65532;52.124;5.480;2023-06-24T07:26:21;4.90;;;1.48;;
76636;SDS011;65532;52.124;5.480;2023-06-24T07:28:48;6.32;;;1.95;;
76636;SDS011;65532;52.124;5.480;2023-06-24T07:31:29;5.93;;;1.85;;
76636;SDS011;65532;52.124;5.480;2023-06-24T07:33:55;6.82;;;1.73;;
76636;SDS011;65532;52.124;5.480;2023-06-24T07:36:22;4.22;;;1.65;;
76636;SDS011;65532;52.124;5.480;2023-06-24T07:38:48;4.65;;;1.70;;
76636;SDS011;65532;52.124;5.480;2023-06-24T07:41:15;6.10;;;2.20;;
76636;SDS011;65532;52.124;5.480;2023-06-24T07:43:41;7.00;;;1.92;;
76636;SDS011;65532;52.124;5.480;2023-06-24T07:46:08;5.65;;;1.65;;
76636;SDS011;65532;52.124;5.480;2023-06-24T07:48:34;5.15;;;1.42;;
76636;SDS011;65532;52.124;5.480;2023-06-24T07:51:01;3.78;;;1.35;;
76636;SDS011;65532;52.124;5.480;2023-06-24T07:53:28;7.55;;;2.30;;
76636;SDS011;65532;52.124;5.480;2023-06-24T07:55:54;6.97;;;2.88;;
76636;SDS011;65532;52.124;5.480;2023-06-24T07:58:21;5.25;;;2.00;;
76636;SDS011;65532;52.124;5.480;2023-06-24T08:00:47;3.97;;;1.13;;
76636;SDS011;65532;52.124;5.480;2023-06-24T08:03:14;3.97;;;1.42;;
76636;SDS011;65532;52.124;5.480;2023-06-24T08:05:41;3.95;;;1.05;;
76636;SDS011;65532;52.124;5.480;2023-06-24T08:08:07;5.13;;;2.13;;
76636;SDS011;65532;52.124;5.480;2023-06-24T08:10:34;3.90;;;1.60;;
76636;SDS011;65532;52.124;5.480;2023-06-24T08:13:01;4.45;;;1.25;;
76636;SDS011;65532;52.124;5.480;2023-06-24T08:15:27;4.15;;;1.35;;
76636;SDS011;65532;52.124;5.480;2023-06-24T08:17:54;7.03;;;1.40;;
76636;SDS011;65532;52.124;5.480;2023-06-24T08:20:21;2.60;;;0.93;;
76636;SDS011;65532;52.124;5.480;2023-06-24T08:22:49;3.80;;;1.23;;
76636;SDS011;65532;52.124;5.480;2023-06-24T08:25:16;5.07;;;1.85;;
76636;SDS011;65532;52.124;5.480;2023-06-24T08:27:42;3.75;;;1.45;;
76636;SDS011;65532;52.124;5.480;2023-06-24T08:30:13;3.80;;;1.02;;
76636;SDS011;65532;52.124;5.480;2023-06-24T08:32:43;3.67;;;1.13;;
76636;SDS011;65532;52.124;5.480;2023-06-24T08:35:09;4.30;;;1.55;;
76636;SDS011;65532;52.124;5.480;2023-06-24T08:37:37;6.43;;;1.70;;
76636;SDS011;65532;52.124;5.480;2023-06-24T08:40:04;3.90;;;1.48;;
76636;SDS011;65532;52.124;5.480;2023-06-24T08:42:32;3.80;;;1.42;;
76636;SDS011;65532;52.124;5.480;2023-06-24T08:44:58;7.10;;;0.95;;
76636;SDS011;65532;52.124;5.480;2023-06-24T08:47:25;5.60;;;1.00;;
76636;SDS011;65532;52.124;5.480;2023-06-24T08:50:04;3.45;;;1.27;;
76636;SDS011;65532;52.124;5.480;2023-06-24T08:52:35;5.57;;;2.28;;
76636;SDS011;65532;52.124;5.480;2023-06-24T08:55:04;4.63;;;1.80;;
76636;SDS011;65532;52.124;5.480;2023-06-24T08:57:33;4.90;;;1.95;;
76636;SDS011;65532;52.124;5.480;2023-06-24T08:59:59;6.10;;;2.22;;
76636;SDS011;65532;52.124;5.480;2023-06-24T09:02:26;5.93;;;1.50;;
76636;SDS011;65532;52.124;5.480;2023-06-24T09:04:54;4.68;;;1.80;;
76636;SDS011;65532;52.124;5.480;2023-06-24T09:07:27;4.07;;;1.58;;
76636;SDS011;65532;52.124;5.480;2023-06-24T09:09:54;5.10;;;2.33;;
76636;SDS011;65532;52.124;5.480;2023-06-24T09:12:22;3.70;;;1.63;;
76636;SDS011;65532;52.124;5.480;2023-06-24T09:14:50;4.03;;;1.65;;
76636;SDS011;65532;52.124;5.480;2023-06-24T09:17:17;4.97;;;2.40;;
76636;SDS011;65532;52.124;5.480;2023-06-24T09:19:48;4.90;;;1.65;;
76636;SDS011;65532;52.124;5.480;2023-06-24T09:22:15;5.60;;;1.95;;
76636;SDS011;65532;52.124;5.480;2023-06-24T09:24:45;8.77;;;2.33;;
76636;SDS011;65532;52.124;5.480;2023-06-24T09:27:14;5.63;;;1.95;;
76636;SDS011;65532;52.124;5.480;2023-06-24T09:29:42;5.57;;;2.13;;
76636;SDS011;65532;52.124;5.480;2023-06-24T09:32:09;5.60;;;2.35;;
76636;SDS011;65532;52.124;5.480;2023-06-24T09:34:36;5.68;;;3.03;;
76636;SDS011;65532;52.124;5.480;2023-06-24T09:37:04;5.35;;;1.70;;
76636;SDS011;65532;52.124;5.480;2023-06-24T09:39:37;6.13;;;2.35;;
76636;SDS011;65532;52.124;5.480;2023-06-24T09:42:06;8.00;;;2.60;;
76636;SDS011;65532;52.124;5.480;2023-06-24T09:44:33;7.20;;;2.67;;
76636;SDS011;65532;52.124;5.480;2023-06-24T09:47:01;5.90;;;2.35;;
76636;SDS011;65532;52.124;5.480;2023-06-24T09:49:28;7.88;;;2.67;;
76636;SDS011;65532;52.124;5.480;2023-06-24T09:51:56;7.05;;;2.60;;
76636;SDS011;65532;52.124;5.480;2023-06-24T09:54:27;5.47;;;2.00;;
76636;SDS011;65532;52.124;5.480;2023-06-24T09:57:00;5.43;;;2.47;;
76636;SDS011;65532;52.124;5.480;2023-06-24T09:59:28;4.60;;;2.35;;
76636;SDS011;65532;52.124;5.480;2023-06-24T10:01:56;10.00;;;2.45;;
76636;SDS011;65532;52.124;5.480;2023-06-24T10:04:24;6.88;;;2.90;;
76636;SDS011;65532;52.124;5.480;2023-06-24T10:06:53;5.50;;;2.75;;
76636;SDS011;65532;52.124;5.480;2023-06-24T10:09:21;6.47;;;2.55;;
76636;SDS011;65532;52.124;5.480;2023-06-24T10:11:48;4.88;;;2.22;;
76636;SDS011;65532;52.124;5.480;2023-06-24T10:14:14;4.93;;;1.95;;
76636;SDS011;65532;52.124;5.480;2023-06-24T10:16:41;6.93;;;2.53;;
76636;SDS011;65532;52.124;5.480;2023-06-24T10:19:09;6.97;;;2.15;;
76636;SDS011;65532;52.124;5.480;2023-06-24T10:24:37;5.28;;;2.42;;
76636;SDS011;65532;52.124;5.480;2023-06-24T10:27:44;4.88;;;1.98;;
76636;SDS011;65532;52.124;5.480;2023-06-24T10:30:06;5.32;;;2.13;;
76636;SDS011;65532;52.124;5.480;2023-06-24T10:32:41;6.18;;;2.50;;
76636;SDS011;65532;52.124;5.480;2023-06-24T10:35:20;6.15;;;2.28;;
76636;SDS011;65532;52.124;5.480;2023-06-24T10:38:01;4.82;;;2.05;;
76636;SDS011;65532;52.124;5.480;2023-06-24T10:40:37;6.75;;;2.35;;
76636;SDS011;65532;52.124;5.480;2023-06-24T10:43:22;5.00;;;1.98;;
76636;SDS011;65532;52.124;5.480;2023-06-24T10:45:52;8.93;;;2.85;;
76636;SDS011;65532;52.124;5.480;2023-06-24T10:48:20;7.40;;;2.95;;
76636;SDS011;65532;52.124;5.480;2023-06-24T10:50:47;5.90;;;3.00;;
76636;SDS011;65532;52.124;5.480;2023-06-24T10:53:14;6.38;;;2.22;;
76636;SDS011;65532;52.124;5.480;2023-06-24T10:55:40;5.55;;;2.08;;
76636;SDS011;65532;52.124;5.480;2023-06-24T10:58:08;5.20;;;2.28;;
76636;SDS011;65532;52.124;5.480;2023-06-24T11:00:38;6.00;;;2.50;;
76636;SDS011;65532;52.124;5.480;2023-06-24T11:03:09;6.63;;;2.80;;
76636;SDS011;65532;52.124;5.480;2023-06-24T11:05:43;5.97;;;2.50;;
76636;SDS011;65532;52.124;5.480;2023-06-24T11:08:11;5.90;;;2.20;;
76636;SDS011;65532;52.124;5.480;2023-06-24T11:10:42;5.45;;;3.28;;
76636;SDS011;65532;52.124;5.480;2023-06-24T11:13:14;6.32;;;2.92;;
76636;SDS011;65532;52.124;5.480;2023-06-24T11:15:41;7.05;;;3.05;;
76636;SDS011;65532;52.124;5.480;2023-06-24T11:18:09;6.85;;;2.88;;
76636;SDS011;65532;52.124;5.480;2023-06-24T11:20:36;7.45;;;3.10;;
76636;SDS011;65532;52.124;5.480;2023-06-24T11:23:08;5.70;;;2.40;;
76636;SDS011;65532;52.124;5.480;2023-06-24T11:25:40;7.32;;;3.08;;
76636;SDS011;65532;52.124;5.480;2023-06-24T11:28:14;9.27;;;3.00;;
76636;SDS011;65532;52.124;5.480;2023-06-24T11:30:48;6.32;;;3.08;;
76636;SDS011;65532;52.124;5.480;2023-06-24T11:33:25;4.72;;;2.42;;
76636;SDS011;65532;52.124;5.480;2023-06-24T11:35:55;7.93;;;3.00;;
76636;SDS011;65532;52.124;5.480;2023-06-24T11:38:21;6.53;;;2.92;;
76636;SDS011;65532;52.124;5.480;2023-06-24T11:40:48;4.85;;;2.42;;
76636;SDS011;65532;52.124;5.480;2023-06-24T11:43:15;5.80;;;2.50;;
76636;SDS011;65532;52.124;5.480;2023-06-24T11:45:41;5.70;;;2.95;;
76636;SDS011;65532;52.124;5.480;2023-06-24T11:48:08;7.03;;;3.33;;
76636;SDS011;65532;52.124;5.480;2023-06-24T11:50:35;6.20;;;3.10;;
76636;SDS011;65532;52.124;5.480;2023-06-24T11:53:03;8.30;;;3.90;;
76636;SDS011;65532;52.124;5.480;2023-06-24T11:55:31;6.47;;;3.17;;
76636;SDS011;65532;52.124;5.480;2023-06-24T11:58:01;6.00;;;3.00;;
76636;SDS011;65532;52.124;5.480;2023-06-24T12:00:32;7.22;;;3.17;;
76636;SDS011;65532;52.124;5.480;2023-06-24T12:03:02;8.48;;;3.53;;
76636;SDS011;65532;52.124;5.480;2023-06-24T12:05:35;7.70;;;2.72;;
76636;SDS011;65532;52.124;5.480;2023-06-24T12:08:06;8.27;;;2.88;;
76636;SDS011;65532;52.124;5.480;2023-06-24T12:10:35;6.40;;;3.08;;
76636;SDS011;65532;52.124;5.480;2023-06-24T12:13:03;7.40;;;3.22;;
76636;SDS011;65532;52.124;5.480;2023-06-24T12:15:32;8.25;;;2.95;;
76636;SDS011;65532;52.124;5.480;2023-06-24T12:18:00;6.72;;;2.63;;
76636;SDS011;65532;52.124;5.480;2023-06-24T12:20:28;4.68;;;2.45;;
76636;SDS011;65532;52.124;5.480;2023-06-24T12:23:00;5.03;;;2.40;;
76636;SDS011;65532;52.124;5.480;2023-06-24T12:25:26;7.78;;;4.28;;
76636;SDS011;65532;52.124;5.480;2023-06-24T12:27:53;5.30;;;2.90;;
76636;SDS011;65532;52.124;5.480;2023-06-24T12:30:19;5.35;;;2.40;;
76636;SDS011;65532;52.124;5.480;2023-06-24T12:32:49;5.53;;;2.25;;
76636;SDS011;65532;52.124;5.480;2023-06-24T12:35:16;5.50;;;2.10;;
76636;SDS011;65532;52.124;5.480;2023-06-24T12:37:43;6.50;;;2.33;;
76636;SDS011;65532;52.124;5.480;2023-06-24T12:40:11;7.10;;;2.67;;
76636;SDS011;65532;52.124;5.480;2023-06-24T12:42:38;5.72;;;2.28;;
76636;SDS011;65532;52.124;5.480;2023-06-24T12:45:04;5.38;;;2.80;;
76636;SDS011;65532;52.124;5.480;2023-06-24T12:47:31;6.07;;;3.22;;
76636;SDS011;65532;52.124;5.480;2023-06-24T12:49:58;5.40;;;2.22;;
76636;SDS011;65532;52.124;5.480;2023-06-24T12:52:25;6.20;;;2.47;;
76636;SDS011;65532;52.124;5.480;2023-06-24T12:54:51;7.45;;;2.47;;
76636;SDS011;65532;52.124;5.480;2023-06-24T12:57:18;4.47;;;1.90;;
76636;SDS011;65532;52.124;5.480;2023-06-24T12:59:44;5.75;;;2.92;;
76636;SDS011;65532;52.124;5.480;2023-06-24T13:02:11;5.22;;;1.90;;
76636;SDS011;65532;52.124;5.480;2023-06-24T13:04:37;5.47;;;3.08;;
76636;SDS011;65532;52.124;5.480;2023-06-24T13:07:04;6.50;;;3.17;;
76636;SDS011;65532;52.124;5.480;2023-06-24T13:09:31;5.25;;;2.58;;
76636;SDS011;65532;52.124;5.480;2023-06-24T13:11:57;8.13;;;3.65;;
76636;SDS011;65532;52.124;5.480;2023-06-24T13:14:24;7.93;;;2.40;;
76636;SDS011;65532;52.124;5.480;2023-06-24T13:19:20;7.38;;;3.20;;
76636;SDS011;65532;52.124;5.480;2023-06-24T13:21:47;5.50;;;2.85;;
76636;SDS011;65532;52.124;5.480;2023-06-24T13:24:14;7.75;;;2.63;;
76636;SDS011;65532;52.124;5.480;2023-06-24T13:26:40;8.95;;;3.17;;
76636;SDS011;65532;52.124;5.480;2023-06-24T13:29:07;7.32;;;2.60;;
76636;SDS011;65532;52.124;5.480;2023-06-24T13:31:34;5.43;;;2.50;;
76636;SDS011;65532;52.124;5.480;2023-06-24T13:34:01;6.68;;;2.60;;
76636;SDS011;65532;52.124;5.480;2023-06-24T13:38:54;4.63;;;2.65;;
76636;SDS011;65532;52.124;5.480;2023-06-24T13:41:21;5.97;;;3.03;;
76636;SDS011;65532;52.124;5.480;2023-06-24T13:43:47;6.57;;;2.88;;
76636;SDS011;65532;52.124;5.480;2023-06-24T13:46:14;7.15;;;3.50;;
76636;SDS011;65532;52.124;5.480;2023-06-24T13:48:40;8.18;;;2.53;;
76636;SDS011;65532;52.124;5.480;2023-06-24T13:51:09;6.28;;;2.97;;
76636;SDS011;65532;52.124;5.480;2023-06-24T13:53:35;5.88;;;2.15;;
76636;SDS011;65532;52.124;5.480;2023-06-24T13:56:02;5.80;;;3.28;;
76636;SDS011;65532;52.124;5.480;2023-06-24T13:58:28;6.88;;;2.58;;
76636;SDS011;65532;52.124;5.480;2023-06-24T14:00:55;6.40;;;2.35;;
76636;SDS011;65532;52.124;5.480;2023-06-24T14:03:21;5.68;;;2.30;;
76636;SDS011;65532;52.124;5.480;2023-06-24T14:05:48;6.78;;;2.88;;
76636;SDS011;65532;52.124;5.480;2023-06-24T14:08:14;7.43;;;2.67;;
76636;SDS011;65532;52.124;5.480;2023-06-24T14:10:41;7.78;;;2.67;;
76636;SDS011;65532;52.124;5.480;2023-06-24T14:13:08;6.50;;;2.83;;
76636;SDS011;65532;52.124;5.480;2023-06-24T14:15:34;6.15;;;2.35;;
76636;SDS011;65532;52.124;5.480;2023-06-24T14:18:00;5.63;;;2.03;;
76636;SDS011;65532;52.124;5.480;2023-06-24T14:20:27;7.05;;;2.70;;
76636;SDS011;65532;52.124;5.480;2023-06-24T14:22:54;6.82;;;3.17;;
76636;SDS011;65532;52.124;5.480;2023-06-24T14:25:20;7.13;;;2.40;;
76636;SDS011;65532;52.124;5.480;2023-06-24T14:27:46;6.32;;;2.55;;
76636;SDS011;65532;52.124;5.480;2023-06-24T14:30:13;5.80;;;2.47;;
76636;SDS011;65532;52.124;5.480;2023-06-24T14:32:39;7.25;;;2.78;;
76636;SDS011;65532;52.124;5.480;2023-06-24T14:35:07;7.20;;;2.70;;
76636;SDS011;65532;52.124;5.480;2023-06-24T14:37:34;6.15;;;2.55;;
76636;SDS011;65532;52.124;5.480;2023-06-24T14:40:00;6.32;;;2.88;;
76636;SDS011;65532;52.124;5.480;2023-06-24T14:42:27;6.03;;;2.25;;
76636;SDS011;65532;52.124;5.480;2023-06-24T14:44:53;5.97;;;3.05;;
76636;SDS011;65532;52.124;5.480;2023-06-24T14:47:20;5.53;;;2.35;;
76636;SDS011;65532;52.124;5.480;2023-06-24T14:49:47;6.95;;;3.03;;
76636;SDS011;65532;52.124;5.480;2023-06-24T14:52:13;6.28;;;3.22;;
76636;SDS011;65532;52.124;5.480;2023-06-24T14:54:39;5.93;;;2.75;;
76636;SDS011;65532;52.124;5.480;2023-06-24T14:57:06;5.90;;;2.38;;
76636;SDS011;65532;52.124;5.480;2023-06-24T14:59:33;5.88;;;2.88;;
76636;SDS011;65532;52.124;5.480;2023-06-24T15:01:59;4.78;;;2.45;;
76636;SDS011;65532;52.124;5.480;2023-06-24T15:04:26;6.05;;;2.53;;